Terminal Aerodrome Forecast
Issued by NWS

Home | Current Version | Previous Version | Text Only | Print | Product List | Glossary On
Versions: 1 2 3 4 5 6 7 8 9 10 11 12 13 14 15 16 17 18 19
000
FTUS44 KBMX 231500 AAC
TAFEET
TAF AMD
KEET 231541Z 2316/2412 10007KT 3SM -RA BR OVC005
     FM231800 13010G18KT 3SM -SHRA VCTS OVC008CB
      TEMPO 2318/2322 1SM TSRA OVC010CB
     FM232200 18010G18KT P6SM VCSH BKN015=

USA.gov is the U.S. government's official web portal to all federal, state and local government web resources and services.